Al Funaytis, Kuwait

12:22 AM AST on December 04, 2016 (GMT +0300)
Abdulaziz Bin Abdulrahman Al Saud Expressway | | Change Station

Elev 19 ft 29.20 °N, 48.11 °E | Updated 7 minutes ago

Light Haze
Light Haze
63.1 °F
Feels Like 63.1 °F
N
1.2
Wind Variable Wind from NNW
Gusts 3.1 mph

Today
High -- | Low -- °F
--% Chance of Precip.
Yesterday
High -- | Low -- °F
Precip. -- in
Pressure 30.27 in
Visibility 1.6 miles
Clouds
Dew Point 52 °F
Humidity 66%
Rainfall 0.00 in
Snow Depth Not available.
6:26 AM 4:49 PM
Waxing Crescent, 17% visible
METAR OKBK 032100Z 35009KT 2500 -HZ NSC 16/10 Q1025 NOSIG
Pressure 30.27 in
Visibility 1.6 miles
Clouds
Dew Point 52 °F
Humidity 66%
Rainfall 0.00 in
Snow Depth Not available.
6:26 AM 4:49 PM
Waxing Crescent, 17% visible
METAR OKBK 032100Z 35009KT 2500 -HZ NSC 16/10 Q1025 NOSIG

10-Day Weather Forecast

No radar image for this location.
×

Almanac

Astronomy

Dec. 04, 2016 Rise Set
Actual Time
Civil Twilight
Nautical Twilight
Astronomical Twilight
Moon
Length of Visible Light
Length of Day
Tomorrow will be .
, % of the Moon is Illuminated

Today's Extremes

Country Highs Country Lows

Community

WunderPhotos

Upload Photos

1,955,498 photos uploaded!

WunderBlog® & News

Nearby

Air Quality

  Air Quality AQ Index Pollutant
Not available.

Snow Depth

Station Depth Elevation

Earthquake Activity

City Distance Mag. Time & Date
Minimum magnitude displayed is 2.5.

Coastal Water Temperatures

Place Temperature

Stations

Nearby Weather Stations

Station Location Temp. Windchill Dew Point Humidity Wind Precip. Elev Updated Type